Time;durP1;ratioP1;P1;durP2;ratioP2;P2;SDS_P1;SDS_P2;PMS_P1;PMS_P2;Temp;Humidity;BMP_temperature;BMP_pressure;BME280_temperature;BME280_humidity;BME280_pressure;Samples;Min_cycle;Max_cycle;Signal;HPM_P1;HPM_P2
2022/10/29 00:01:03;;;;;;;13.93;7.28;;;19.30;99.90;;;;;;5108936;28;20315;-33
2022/10/29 00:03:35;;;;;;;15.07;7.25;;;19.30;99.90;;;;;;5108760;28;20673;-33
2022/10/29 00:06:09;;;;;;;13.82;6.40;;;19.30;99.90;;;;;;5108244;28;20700;-32
2022/10/29 00:08:37;;;;;;;13.77;7.00;;;19.30;99.90;;;;;;5109462;28;20226;-32
2022/10/29 00:11:12;;;;;;;12.38;6.40;;;19.30;99.90;;;;;;5107557;28;20193;-32
2022/10/29 00:13:40;;;;;;;15.88;7.13;;;19.30;99.90;;;;;;5109157;28;20613;-32
2022/10/29 00:16:11;;;;;;;12.20;6.57;;;19.20;99.90;;;;;;5108854;28;20244;-32
2022/10/29 00:18:38;;;;;;;14.55;6.68;;;19.20;99.90;;;;;;5110549;28;20210;-32
2022/10/29 00:21:14;;;;;;;14.70;7.75;;;19.10;99.90;;;;;;5112753;28;20275;-33
2022/10/29 00:23:41;;;;;;;13.07;7.00;;;19.10;99.90;;;;;;5112569;28;20225;-33
2022/10/29 00:26:09;;;;;;;13.10;6.60;;;19.10;99.90;;;;;;5112604;28;20335;-33
2022/10/29 00:28:38;;;;;;;14.10;7.10;;;19.10;99.90;;;;;;5112811;28;20491;-33
2022/10/29 00:31:10;;;;;;;17.20;6.93;;;19.10;99.90;;;;;;5112398;28;20198;-32
2022/10/29 00:33:37;;;;;;;17.35;7.05;;;19.10;99.90;;;;;;5112242;28;20226;-32
2022/10/29 00:36:06;;;;;;;16.08;6.95;;;19.10;99.90;;;;;;5112188;28;20228;-34
2022/10/29 00:38:34;;;;;;;11.65;6.55;;;19.10;99.90;;;;;;5112166;28;20281;-32
2022/10/29 00:41:03;;;;;;;12.13;6.72;;;19.00;99.90;;;;;;5112185;28;20681;-32
2022/10/29 00:43:38;;;;;;;17.08;6.88;;;19.00;99.90;;;;;;5112472;28;20776;-32
2022/10/29 00:46:11;;;;;;;12.77;6.53;;;19.00;99.90;;;;;;5112247;28;20182;-32
2022/10/29 00:48:44;;;;;;;14.38;7.75;;;18.90;99.90;;;;;;5112164;28;20186;-33
2022/10/29 00:51:14;;;;;;;11.18;6.65;;;18.90;99.90;;;;;;5111848;28;20212;-32
2022/10/29 00:53:52;;;;;;;9.93;6.57;;;18.90;99.90;;;;;;5112143;28;20822;-32
2022/10/29 00:56:21;;;;;;;13.77;6.90;;;18.90;99.90;;;;;;5111738;28;20301;-32
2022/10/29 00:58:48;;;;;;;15.88;7.32;;;18.80;99.90;;;;;;5109744;28;20277;-32
2022/10/29 01:01:18;;;;;;;12.73;6.72;;;18.80;99.90;;;;;;5111318;28;20198;-32
2022/10/29 01:03:47;;;;;;;10.80;6.57;;;18.80;99.90;;;;;;5097035;28;20202;-33
2022/10/29 01:06:14;;;;;;;11.30;6.63;;;18.80;99.90;;;;;;5101406;28;20229;-32
2022/10/29 01:08:41;;;;;;;17.27;6.93;;;18.80;99.90;;;;;;5100468;28;20206;-33
2022/10/29 01:11:33;;;;;;;13.90;6.72;;;18.80;99.90;;;;;;5111197;28;20259;-33
2022/10/29 01:14:21;;;;;;;10.52;6.57;;;18.80;99.90;;;;;;5111621;28;20251;-33
2022/10/29 01:17:05;;;;;;;14.90;7.18;;;18.80;99.90;;;;;;5096484;28;20220;-32
2022/10/29 01:19:35;;;;;;;12.63;6.78;;;18.80;99.90;;;;;;5110949;28;20316;-32
2022/10/29 01:22:25;;;;;;;16.00;6.97;;;18.80;99.90;;;;;;5111098;28;20640;-32
2022/10/29 01:25:20;;;;;;;15.38;6.63;;;18.80;99.90;;;;;;5111394;28;20210;-32
2022/10/29 01:27:59;;;;;;;12.77;6.70;;;18.80;99.90;;;;;;5111351;28;20263;-33
2022/10/29 01:31:03;;;;;;;12.45;6.55;;;18.80;99.90;;;;;;5111319;28;20190;-32
2022/10/29 01:33:33;;;;;;;11.80;7.30;;;18.80;99.90;;;;;;5111092;28;20238;-32
2022/10/29 01:36:38;;;;;;;12.02;6.70;;;18.80;99.90;;;;;;5111001;28;20293;-32
2022/10/29 01:39:21;;;;;;;13.20;6.90;;;18.80;99.90;;;;;;5104165;27;20225;-32
2022/10/29 01:42:21;;;;;;;14.98;6.97;;;18.80;99.90;;;;;;5111098;28;20205;-32
2022/10/29 01:45:17;;;;;;;15.10;7.03;;;18.80;99.90;;;;;;5102401;28;20231;-33
2022/10/29 01:47:55;;;;;;;14.00;6.57;;;18.80;99.90;;;;;;5109848;28;20210;-32
2022/10/29 01:50:29;;;;;;;13.77;7.10;;;18.70;99.90;;;;;;5109521;28;20573;-32
2022/10/29 01:52:57;;;;;;;12.50;6.88;;;18.70;99.90;;;;;;5110744;28;20201;-33
2022/10/29 01:55:29;;;;;;;10.38;6.53;;;18.80;99.90;;;;;;5110688;28;20632;-33
2022/10/29 01:57:57;;;;;;;13.73;6.95;;;18.70;99.90;;;;;;5109455;28;20202;-33
2022/10/29 02:00:25;;;;;;;12.90;6.57;;;18.80;99.90;;;;;;5110952;28;20688;-33
2022/10/29 02:03:21;;;;;;;12.43;6.97;;;18.70;99.90;;;;;;5110663;28;20285;-33
2022/10/29 02:05:59;;;;;;;14.43;6.93;;;18.80;99.90;;;;;;5110561;28;20198;-32
2022/10/29 02:08:31;;;;;;;14.27;7.28;;;18.70;99.90;;;;;;5110500;28;20174;-32
2022/10/29 02:11:14;;;;;;;16.20;7.25;;;18.70;99.90;;;;;;5110433;28;20216;-33
2022/10/29 02:13:53;;;;;;;17.20;7.53;;;18.70;99.90;;;;;;5110318;28;20208;-32
2022/10/29 02:16:22;;;;;;;12.73;6.75;;;18.70;99.90;;;;;;5110078;28;20194;-32
2022/10/29 02:18:49;;;;;;;11.18;6.18;;;18.60;99.90;;;;;;5110260;28;20305;-33
2022/10/29 02:21:18;;;;;;;16.55;7.75;;;18.60;99.90;;;;;;5108896;28;20191;-33
2022/10/29 02:23:46;;;;;;;14.73;7.30;;;18.60;99.90;;;;;;5110519;28;20696;-33
2022/10/29 02:26:13;;;;;;;17.80;7.40;;;18.60;99.90;;;;;;5109957;28;20672;-32
2022/10/29 02:28:40;;;;;;;15.55;6.72;;;18.60;99.90;;;;;;5109869;28;20210;-33
2022/10/29 02:31:11;;;;;;;10.77;7.22;;;18.60;99.90;;;;;;5110233;28;20202;-33
2022/10/29 02:33:38;;;;;;;15.68;7.20;;;18.50;99.90;;;;;;5109958;28;20680;-32
2022/10/29 02:36:06;;;;;;;11.30;6.88;;;18.50;99.90;;;;;;5110265;28;20228;-32
2022/10/29 02:38:33;;;;;;;13.82;6.80;;;18.50;99.90;;;;;;5109995;28;20261;-32
2022/10/29 02:41:02;;;;;;;13.85;7.35;;;18.40;99.90;;;;;;5109336;28;20233;-33
2022/10/29 02:43:29;;;;;;;13.52;7.07;;;18.40;99.90;;;;;;5109860;28;20226;-32
2022/10/29 02:46:14;;;;;;;14.68;7.22;;;18.40;99.90;;;;;;5110012;28;20637;-32
2022/10/29 02:48:42;;;;;;;15.25;7.00;;;18.30;99.90;;;;;;5109929;28;20289;-33
2022/10/29 02:51:12;;;;;;;14.88;6.80;;;18.30;99.90;;;;;;5109640;28;20293;-32
2022/10/29 02:53:39;;;;;;;13.98;7.43;;;18.30;99.90;;;;;;5109549;28;20907;-32
2022/10/29 02:56:10;;;;;;;12.88;7.05;;;18.30;99.90;;;;;;5109811;28;20720;-32
2022/10/29 02:58:37;;;;;;;14.50;7.30;;;18.30;99.90;;;;;;5109729;28;20244;-32
2022/10/29 03:01:07;;;;;;;13.13;6.65;;;18.30;99.90;;;;;;5110183;28;20333;-32
2022/10/29 03:03:34;;;;;;;12.48;7.50;;;18.40;99.90;;;;;;5108092;28;20210;-32
2022/10/29 03:06:01;;;;;;;11.00;6.93;;;18.40;99.90;;;;;;5091983;28;20764;-32
2022/10/29 03:08:29;;;;;;;11.15;6.78;;;18.40;99.90;;;;;;5109404;28;21093;-33
2022/10/29 03:10:56;;;;;;;13.98;6.93;;;18.40;99.90;;;;;;5109309;28;20300;-33
2022/10/29 03:13:23;;;;;;;10.77;6.95;;;18.40;99.90;;;;;;5109647;28;20242;-32
2022/10/29 03:15:51;;;;;;;19.48;8.30;;;18.40;99.90;;;;;;5109336;28;20288;-32
2022/10/29 03:18:21;;;;;;;14.30;7.55;;;18.40;99.90;;;;;;5109250;28;20580;-33
2022/10/29 03:20:50;;;;;;;14.00;7.38;;;18.40;99.90;;;;;;5109236;28;20704;-32
2022/10/29 03:23:17;;;;;;;12.32;7.03;;;18.40;99.90;;;;;;5107639;28;20238;-32
2022/10/29 03:25:51;;;;;;;13.38;7.30;;;18.40;99.90;;;;;;5109298;28;20198;-32
2022/10/29 03:28:23;;;;;;;14.18;6.90;;;18.40;99.90;;;;;;5109520;28;20198;-32
2022/10/29 03:30:51;;;;;;;16.40;7.50;;;18.40;99.90;;;;;;5109478;28;20234;-32
2022/10/29 03:33:18;;;;;;;12.40;6.75;;;18.40;99.90;;;;;;5109148;28;20210;-32
2022/10/29 03:35:45;;;;;;;13.38;6.55;;;18.40;99.90;;;;;;5109117;28;20688;-32
2022/10/29 03:38:14;;;;;;;13.23;7.40;;;18.40;99.90;;;;;;5108963;28;20864;-32
2022/10/29 03:40:42;;;;;;;10.00;7.18;;;18.40;99.90;;;;;;5109202;28;20198;-32
2022/10/29 03:43:09;;;;;;;12.00;6.10;;;18.40;99.90;;;;;;5109078;28;20231;-32
2022/10/29 03:45:36;;;;;;;13.32;7.30;;;18.40;99.90;;;;;;5109185;28;20710;-33
2022/10/29 03:48:06;;;;;;;14.10;6.68;;;18.40;99.90;;;;;;5109222;28;20194;-33
2022/10/29 03:50:33;;;;;;;10.88;6.78;;;18.40;99.90;;;;;;5109354;28;20204;-32
2022/10/29 03:53:02;;;;;;;12.07;6.88;;;18.40;99.90;;;;;;5110073;28;20238;-32
2022/10/29 03:55:30;;;;;;;11.85;6.97;;;18.40;99.90;;;;;;5113227;28;20711;-32
2022/10/29 03:57:57;;;;;;;16.05;7.40;;;18.40;99.90;;;;;;5113155;28;20263;-32
2022/10/29 04:00:24;;;;;;;10.93;7.28;;;18.40;99.90;;;;;;5113132;28;20958;-32
2022/10/29 04:02:51;;;;;;;18.58;7.60;;;18.40;99.90;;;;;;5112931;28;20267;-32
2022/10/29 04:05:19;;;;;;;16.23;7.30;;;18.40;99.90;;;;;;5111993;28;20619;-32
2022/10/29 04:07:49;;;;;;;13.90;7.28;;;18.40;99.90;;;;;;5112960;28;20285;-33
2022/10/29 04:10:16;;;;;;;12.10;7.57;;;18.40;99.90;;;;;;5112499;28;20207;-32
2022/10/29 04:12:46;;;;;;;12.95;7.57;;;18.40;99.90;;;;;;5112806;28;20202;-33
2022/10/29 04:15:13;;;;;;;15.63;7.72;;;18.40;99.90;;;;;;5112732;28;20252;-31
2022/10/29 04:17:40;;;;;;;20.10;7.22;;;18.40;99.90;;;;;;5112510;28;20743;-31
2022/10/29 04:20:08;;;;;;;16.50;7.28;;;18.40;99.90;;;;;;5112595;28;20227;-31
2022/10/29 04:22:55;;;;;;;12.57;7.40;;;18.40;99.90;;;;;;5112632;28;20190;-32
2022/10/29 04:25:42;;;;;;;14.48;7.72;;;18.40;99.90;;;;;;5112553;28;20288;-32
2022/10/29 04:28:29;;;;;;;14.48;7.60;;;18.40;99.90;;;;;;5112820;28;20595;-31
2022/10/29 04:31:13;;;;;;;12.68;8.00;;;18.40;99.90;;;;;;5110636;28;20194;-31
2022/10/29 04:33:40;;;;;;;14.00;6.80;;;18.50;99.90;;;;;;5112250;28;20202;-31
2022/10/29 04:36:07;;;;;;;13.02;7.18;;;18.40;99.90;;;;;;5112190;28;20245;-32
2022/10/29 04:38:37;;;;;;;14.10;7.20;;;18.50;99.90;;;;;;5112321;28;20359;-31
2022/10/29 04:41:04;;;;;;;15.43;7.93;;;18.50;99.90;;;;;;5112416;28;20186;-31
2022/10/29 04:43:32;;;;;;;13.52;7.88;;;18.50;99.90;;;;;;5111072;28;20285;-32
2022/10/29 04:46:01;;;;;;;13.80;7.35;;;18.50;99.90;;;;;;5112174;28;20208;-32
2022/10/29 04:48:28;;;;;;;15.02;7.25;;;18.50;99.90;;;;;;5112202;28;20281;-32
2022/10/29 04:50:56;;;;;;;16.33;8.03;;;18.50;99.90;;;;;;5111880;28;20251;-32
2022/10/29 04:53:23;;;;;;;13.70;7.63;;;18.50;99.90;;;;;;5110395;28;20234;-32
2022/10/29 04:55:50;;;;;;;16.15;6.95;;;18.50;99.90;;;;;;5110570;28;20292;-32
2022/10/29 04:58:18;;;;;;;13.45;7.20;;;18.50;99.90;;;;;;5111881;28;21113;-32
2022/10/29 05:00:46;;;;;;;14.65;7.38;;;18.50;99.90;;;;;;5112102;28;20273;-32
2022/10/29 05:03:13;;;;;;;14.73;7.13;;;18.50;99.90;;;;;;5111589;28;20271;-32
2022/10/29 05:05:42;;;;;;;14.65;6.90;;;18.50;99.90;;;;;;5111694;28;20732;-32
2022/10/29 05:08:14;;;;;;;13.73;7.50;;;18.50;99.90;;;;;;5111715;28;20198;-32
2022/10/29 05:10:41;;;;;;;14.80;7.47;;;18.50;99.90;;;;;;5110486;28;20202;-32
2022/10/29 05:13:10;;;;;;;17.48;6.93;;;18.50;99.90;;;;;;5111637;28;20290;-32
2022/10/29 05:15:40;;;;;;;14.68;7.22;;;18.50;99.90;;;;;;5110246;28;20665;-32
2022/10/29 05:18:08;;;;;;;15.07;6.93;;;18.50;99.90;;;;;;5110482;28;20279;-32
2022/10/29 05:20:35;;;;;;;13.25;6.93;;;18.50;99.90;;;;;;5111386;28;20261;-32
2022/10/29 05:23:05;;;;;;;12.53;7.33;;;18.50;99.90;;;;;;5111258;28;20605;-31
2022/10/29 05:25:35;;;;;;;10.05;6.78;;;18.50;99.90;;;;;;5111617;28;20197;-32
2022/10/29 05:28:11;;;;;;;11.10;6.35;;;18.50;99.90;;;;;;5111912;28;20647;-31
2022/10/29 05:30:39;;;;;;;11.80;6.72;;;18.50;99.90;;;;;;5111508;28;20277;-32
2022/10/29 05:33:07;;;;;;;11.23;6.43;;;18.50;99.90;;;;;;5111543;28;20202;-33
2022/10/29 05:35:35;;;;;;;11.63;6.43;;;18.50;99.90;;;;;;5111157;28;20292;-32
2022/10/29 05:38:03;;;;;;;10.57;6.10;;;18.50;99.90;;;;;;5111300;28;20761;-31
2022/10/29 05:40:30;;;;;;;12.50;5.97;;;18.50;99.90;;;;;;5110079;28;20752;-32
2022/10/29 05:42:58;;;;;;;12.45;6.35;;;18.40;99.90;;;;;;5110934;28;20198;-31
2022/10/29 05:45:27;;;;;;;11.52;6.93;;;18.40;99.90;;;;;;5111025;28;20206;-32
2022/10/29 05:47:59;;;;;;;11.27;6.50;;;18.40;99.90;;;;;;5111200;28;20220;-32
2022/10/29 05:50:35;;;;;;;11.57;6.32;;;18.40;99.90;;;;;;5109240;28;20738;-32
2022/10/29 05:53:08;;;;;;;14.95;7.13;;;18.40;99.90;;;;;;5111148;28;20181;-31
2022/10/29 05:55:35;;;;;;;15.98;6.63;;;18.40;99.90;;;;;;5110910;28;20214;-31
2022/10/29 05:58:05;;;;;;;13.80;5.97;;;18.40;99.90;;;;;;5110748;28;20752;-32
2022/10/29 06:00:35;;;;;;;13.32;6.32;;;18.40;99.90;;;;;;5110626;28;20190;-32
2022/10/29 06:03:03;;;;;;;12.82;6.50;;;18.40;99.90;;;;;;5110989;28;20732;-32
2022/10/29 06:05:30;;;;;;;9.60;5.93;;;18.40;99.90;;;;;;5110475;28;20217;-31
2022/10/29 06:07:59;;;;;;;16.42;6.50;;;18.30;99.90;;;;;;5111384;28;20601;-32
2022/10/29 06:10:28;;;;;;;12.73;6.20;;;18.30;99.90;;;;;;5110332;28;20194;-31
2022/10/29 06:12:57;;;;;;;13.17;6.47;;;18.30;99.90;;;;;;5110512;28;20206;-32
2022/10/29 06:15:24;;;;;;;12.33;6.27;;;18.30;99.90;;;;;;5109639;28;20309;-32
2022/10/29 06:17:51;;;;;;;13.73;6.72;;;18.20;99.90;;;;;;5110572;28;20240;-32
2022/10/29 06:20:21;;;;;;;15.30;6.27;;;18.20;99.90;;;;;;5110377;28;20586;-32
2022/10/29 06:22:56;;;;;;;10.75;5.90;;;18.20;99.90;;;;;;5110237;27;20259;-32
2022/10/29 06:25:25;;;;;;;12.98;6.20;;;18.20;99.90;;;;;;5110207;28;20190;-32
2022/10/29 06:28:00;;;;;;;10.88;6.20;;;18.20;99.90;;;;;;5110321;28;20580;-32
2022/10/29 06:30:28;;;;;;;13.45;6.38;;;18.10;99.90;;;;;;5108535;28;20259;-32
2022/10/29 06:32:55;;;;;;;14.82;6.97;;;18.10;99.90;;;;;;5109863;28;20194;-32
2022/10/29 06:35:23;;;;;;;11.48;6.40;;;18.10;99.90;;;;;;5108870;28;20230;-32
2022/10/29 06:37:50;;;;;;;10.57;6.63;;;18.10;99.90;;;;;;5110010;28;20771;-32
2022/10/29 06:40:18;;;;;;;14.20;6.80;;;18.10;99.90;;;;;;5108432;28;20571;-32
2022/10/29 06:42:45;;;;;;;12.00;6.18;;;18.00;99.90;;;;;;5110064;28;20234;-32
2022/10/29 06:45:13;;;;;;;13.40;6.20;;;18.00;99.90;;;;;;5109501;28;20205;-32
2022/10/29 06:47:44;;;;;;;17.45;6.50;;;18.00;99.90;;;;;;5109802;28;20698;-32
2022/10/29 06:50:12;;;;;;;13.75;6.28;;;18.00;99.90;;;;;;5110101;28;20266;-32
2022/10/29 06:52:42;;;;;;;16.65;7.00;;;18.00;99.90;;;;;;5109963;28;20584;-32
2022/10/29 06:55:10;;;;;;;12.50;6.20;;;18.00;99.90;;;;;;5109789;28;20175;-31
2022/10/29 06:57:41;;;;;;;11.73;6.38;;;18.00;99.90;;;;;;5109230;28;20238;-34
2022/10/29 07:00:08;;;;;;;11.70;6.13;;;18.00;99.90;;;;;;5108116;28;20202;-33
2022/10/29 07:02:35;;;;;;;13.25;6.43;;;18.00;99.90;;;;;;5109485;28;20244;-32
2022/10/29 07:05:03;;;;;;;12.82;6.32;;;17.90;99.90;;;;;;5110063;28;20201;-32
2022/10/29 07:07:30;;;;;;;16.00;6.40;;;17.90;99.90;;;;;;5109717;28;20626;-32
2022/10/29 07:09:59;;;;;;;14.95;5.90;;;17.90;99.90;;;;;;5109941;28;20277;-34
2022/10/29 07:12:26;;;;;;;13.98;6.88;;;18.00;99.90;;;;;;5109342;28;20221;-32
2022/10/29 07:14:56;;;;;;;13.75;7.07;;;18.00;99.90;;;;;;5109438;28;20289;-32
2022/10/29 07:17:23;;;;;;;10.25;6.22;;;18.00;99.90;;;;;;5109442;28;20640;-32
2022/10/29 07:19:50;;;;;;;12.75;6.63;;;18.00;99.90;;;;;;5109172;28;20687;-32
2022/10/29 07:22:19;;;;;;;12.70;6.68;;;18.00;99.90;;;;;;5108954;28;20914;-33
2022/10/29 07:24:46;;;;;;;13.07;6.68;;;18.00;99.90;;;;;;5108390;28;20262;-32
2022/10/29 07:27:14;;;;;;;12.77;6.20;;;18.00;99.90;;;;;;5111236;28;20197;-32
2022/10/29 07:29:41;;;;;;;13.05;6.72;;;18.00;99.90;;;;;;5116054;28;20285;-32
2022/10/29 07:32:08;;;;;;;13.13;6.57;;;18.00;99.90;;;;;;5115749;28;20206;-33
2022/10/29 07:34:35;;;;;;;11.30;6.38;;;18.10;99.90;;;;;;5115861;28;20505;-33
2022/10/29 07:37:02;;;;;;;14.45;6.20;;;18.10;99.90;;;;;;5116111;28;20225;-32
2022/10/29 07:39:32;;;;;;;14.50;6.53;;;18.10;99.90;;;;;;5115661;28;20720;-32
2022/10/29 07:42:01;;;;;;;10.00;6.10;;;18.10;99.90;;;;;;5115683;28;20198;-33
2022/10/29 07:44:28;;;;;;;14.32;7.15;;;18.10;99.90;;;;;;5115958;27;20609;-32
2022/10/29 07:47:01;;;;;;;15.20;6.57;;;18.20;99.90;;;;;;5115650;28;20201;-32
2022/10/29 07:49:29;;;;;;;11.85;6.10;;;18.20;99.90;;;;;;5116052;28;20255;-32
2022/10/29 07:51:58;;;;;;;13.80;6.35;;;18.20;99.90;;;;;;5115585;28;20650;-33
2022/10/29 07:54:25;;;;;;;12.98;6.57;;;18.30;99.90;;;;;;5115786;27;20206;-32
2022/10/29 07:56:52;;;;;;;7.80;5.45;;;18.30;99.90;;;;;;5116418;28;20628;-33
2022/10/29 07:59:19;;;;;;;11.35;5.55;;;18.40;99.90;;;;;;5116123;28;20267;-33
2022/10/29 08:01:47;;;;;;;10.35;5.95;;;18.40;99.90;;;;;;5111829;28;20260;-33
2022/10/29 08:04:14;;;;;;;13.02;5.95;;;18.40;99.90;;;;;;5091941;28;20542;-32
2022/10/29 08:06:41;;;;;;;9.73;5.53;;;18.50;99.90;;;;;;5106528;28;20290;-32
2022/10/29 08:09:10;;;;;;;10.45;6.15;;;18.50;99.90;;;;;;5105133;28;20794;-32
2022/10/29 08:11:38;;;;;;;9.88;5.10;;;18.60;99.90;;;;;;5108326;28;20225;-32
2022/10/29 08:14:07;;;;;;;10.18;5.35;;;18.60;99.90;;;;;;5106122;28;20208;-32
2022/10/29 08:16:37;;;;;;;9.40;5.65;;;18.70;99.90;;;;;;5097434;28;20734;-32
2022/10/29 08:19:04;;;;;;;13.00;5.63;;;18.70;99.90;;;;;;5094968;28;20288;-32
2022/10/29 08:21:33;;;;;;;12.70;5.70;;;18.80;99.90;;;;;;5094825;28;20642;-32
2022/10/29 08:24:03;;;;;;;9.43;5.45;;;18.80;99.90;;;;;;5099985;28;20296;-32
2022/10/29 08:26:31;;;;;;;9.77;5.95;;;18.90;99.90;;;;;;5110468;28;20252;-32
2022/10/29 08:28:58;;;;;;;10.75;5.20;;;18.90;99.90;;;;;;5095042;28;20708;-32
2022/10/29 08:31:25;;;;;;;11.43;6.50;;;19.00;99.90;;;;;;5094631;28;20268;-32
2022/10/29 08:33:54;;;;;;;12.60;5.90;;;19.00;99.90;;;;;;5107080;28;20202;-32
2022/10/29 08:36:21;;;;;;;9.52;4.95;;;19.00;99.90;;;;;;5099925;28;20653;-31
2022/10/29 08:38:49;;;;;;;11.23;5.75;;;19.10;99.90;;;;;;5091720;28;20729;-32
2022/10/29 08:41:32;;;;;;;14.02;5.65;;;19.10;99.90;;;;;;5091909;28;20234;-32
2022/10/29 08:44:31;;;;;;;17.35;6.22;;;19.20;99.90;;;;;;5090521;28;20681;-33
2022/10/29 08:47:12;;;;;;;10.70;5.68;;;19.20;99.90;;;;;;5111658;27;20233;-33
2022/10/29 08:49:46;;;;;;;10.35;5.75;;;19.20;99.90;;;;;;5093302;28;20191;-31
2022/10/29 08:52:23;;;;;;;9.65;5.45;;;19.30;99.90;;;;;;5096995;28;20230;-32
2022/10/29 08:55:16;;;;;;;11.27;5.50;;;19.30;99.90;;;;;;5091891;28;20446;-32
2022/10/29 08:57:49;;;;;;;10.23;5.55;;;19.30;99.90;;;;;;5091614;28;20692;-32
2022/10/29 09:00:32;;;;;;;11.60;4.93;;;19.40;99.90;;;;;;5106118;28;20207;-32
2022/10/29 09:03:00;;;;;;;9.75;5.28;;;19.40;99.90;;;;;;5095765;28;20238;-31
2022/10/29 09:05:35;;;;;;;13.50;5.13;;;19.50;99.90;;;;;;5096981;27;20309;-32
2022/10/29 09:08:29;;;;;;;8.18;5.10;;;19.60;99.90;;;;;;5092420;28;20301;-34
2022/10/29 09:11:05;;;;;;;10.47;4.93;;;19.70;99.90;;;;;;5089197;28;20298;-32
2022/10/29 09:13:45;;;;;;;8.13;4.72;;;19.70;99.90;;;;;;5090823;28;20252;-32
2022/10/29 09:16:53;;;;;;;8.88;4.85;;;19.80;99.90;;;;;;5104817;28;20202;-32
2022/10/29 09:19:26;;;;;;;10.73;4.80;;;19.90;99.90;;;;;;5101492;28;20287;-32
2022/10/29 09:22:23;;;;;;;11.63;4.97;;;19.90;99.90;;;;;;5101059;28;20285;-32
2022/10/29 09:25:25;;;;;;;12.45;5.30;;;20.00;99.90;;;;;;5102975;28;20199;-32
2022/10/29 09:28:35;;;;;;;7.57;4.40;;;20.00;99.90;;;;;;5095580;28;20235;-32
2022/10/29 09:31:27;;;;;;;9.20;4.72;;;20.10;99.90;;;;;;5090632;28;20322;-32
2022/10/29 09:34:01;;;;;;;8.32;4.25;;;20.10;99.90;;;;;;5111038;28;20195;-32
2022/10/29 09:36:29;;;;;;;8.38;4.63;;;20.20;99.90;;;;;;5093962;28;20745;-32
2022/10/29 09:39:08;;;;;;;10.13;4.35;;;20.20;99.90;;;;;;5103767;28;20226;-32
2022/10/29 09:41:37;;;;;;;9.63;4.53;;;20.30;99.90;;;;;;5110970;28;20461;-32
2022/10/29 09:44:28;;;;;;;9.75;4.72;;;20.30;99.90;;;;;;5099372;28;20310;-32
2022/10/29 09:47:25;;;;;;;8.95;4.13;;;20.40;99.90;;;;;;5103707;27;20211;-33
2022/10/29 09:50:24;;;;;;;13.70;4.45;;;20.40;99.90;;;;;;5090228;28;20281;-32
2022/10/29 09:52:54;;;;;;;9.55;4.70;;;20.50;99.90;;;;;;5090421;28;20215;-32
2022/10/29 09:55:30;;;;;;;7.28;4.03;;;20.50;99.90;;;;;;5089957;28;20649;-32
2022/10/29 09:57:59;;;;;;;12.43;4.40;;;20.60;99.90;;;;;;5093464;28;20210;-32
2022/10/29 10:00:30;;;;;;;10.02;4.75;;;20.60;99.90;;;;;;5101836;28;20214;-32
2022/10/29 10:03:17;;;;;;;12.43;4.65;;;20.70;99.90;;;;;;5110156;28;20623;-32
2022/10/29 10:05:58;;;;;;;8.00;3.90;;;20.70;99.90;;;;;;5110160;28;20178;-32
2022/10/29 10:08:29;;;;;;;7.47;4.05;;;20.80;99.90;;;;;;5103958;28;20202;-32
2022/10/29 10:11:05;;;;;;;7.55;4.30;;;20.80;99.90;;;;;;5093617;28;20713;-32
2022/10/29 10:13:48;;;;;;;10.63;4.70;;;20.90;99.90;;;;;;5100618;28;20202;-32
2022/10/29 10:16:26;;;;;;;12.40;4.78;;;20.90;99.90;;;;;;5091245;28;20253;-32
2022/10/29 10:18:54;;;;;;;15.15;4.53;;;21.00;99.90;;;;;;5091186;28;21664;-32
2022/10/29 10:21:32;;;;;;;8.15;4.10;;;21.00;99.90;;;;;;5102127;28;20301;-32
2022/10/29 10:23:59;;;;;;;12.90;4.25;;;21.10;99.90;;;;;;5101076;28;20209;-32
2022/10/29 10:26:30;;;;;;;11.93;4.95;;;21.10;99.90;;;;;;5086695;28;20585;-32
2022/10/29 10:29:16;;;;;;;10.35;4.65;;;21.20;99.90;;;;;;5097312;28;20248;-32
2022/10/29 10:31:44;;;;;;;8.95;4.13;;;21.20;99.90;;;;;;5099327;28;20247;-32
2022/10/29 10:34:20;;;;;;;7.97;4.63;;;21.30;99.90;;;;;;5102011;28;20584;-32
2022/10/29 10:36:54;;;;;;;9.88;4.40;;;21.40;99.90;;;;;;5098944;28;20357;-32
2022/10/29 10:39:35;;;;;;;7.50;4.13;;;21.40;99.90;;;;;;5107299;28;20305;-32
2022/10/29 10:42:05;;;;;;;11.52;4.43;;;21.50;99.90;;;;;;5100401;28;20636;-32
2022/10/29 10:44:41;;;;;;;7.13;3.88;;;21.50;99.90;;;;;;5104447;28;20649;-32
2022/10/29 10:47:11;;;;;;;6.93;4.13;;;21.60;99.90;;;;;;5100257;28;20197;-32
2022/10/29 10:49:40;;;;;;;10.73;4.13;;;21.60;99.90;;;;;;5100282;28;20246;-32
2022/10/29 10:52:23;;;;;;;10.32;4.50;;;21.70;99.90;;;;;;5104469;28;20635;-32
2022/10/29 10:54:59;;;;;;;7.25;3.88;;;21.70;99.90;;;;;;5097725;28;20209;-32
2022/10/29 10:57:35;;;;;;;9.43;4.22;;;21.80;99.90;;;;;;5091537;28;20220;-32
2022/10/29 11:00:14;;;;;;;10.43;4.38;;;21.80;99.90;;;;;;5104485;28;20377;-32
2022/10/29 11:02:45;;;;;;;8.10;4.00;;;21.90;99.90;;;;;;5097277;28;20239;-32
2022/10/29 11:05:20;;;;;;;8.85;3.80;;;21.90;99.90;;;;;;5092472;28;20214;-32
2022/10/29 11:08:21;;;;;;;8.85;4.22;;;22.00;99.90;;;;;;5088494;28;20206;-32
2022/10/29 11:10:53;;;;;;;9.48;3.40;;;22.00;99.90;;;;;;5088376;28;20233;-32
2022/10/29 11:13:23;;;;;;;9.93;4.03;;;22.10;99.90;;;;;;5096072;28;20221;-32
2022/10/29 11:16:19;;;;;;;7.60;3.25;;;22.20;99.90;;;;;;5089243;28;20190;-32
2022/10/29 11:19:04;;;;;;;6.88;3.20;;;22.20;99.90;;;;;;5089259;27;20217;-32
2022/10/29 11:21:42;;;;;;;6.38;3.63;;;22.30;99.90;;;;;;5090562;28;20262;-32
2022/10/29 11:24:25;;;;;;;9.63;4.30;;;22.30;99.90;;;;;;5094814;28;20407;-32
2022/10/29 11:26:59;;;;;;;10.38;3.58;;;22.40;99.90;;;;;;5102091;28;20230;-32
2022/10/29 11:29:39;;;;;;;10.00;3.78;;;22.40;99.90;;;;;;5097265;28;20225;-32
2022/10/29 11:32:32;;;;;;;8.07;3.67;;;22.50;99.90;;;;;;5096743;28;20198;-32
2022/10/29 11:35:21;;;;;;;6.25;3.47;;;22.60;99.90;;;;;;5088613;28;20815;-32
2022/10/29 11:38:01;;;;;;;7.40;3.95;;;22.60;99.90;;;;;;5087706;28;20941;-32
2022/10/29 11:40:40;;;;;;;7.43;3.30;;;22.70;99.90;;;;;;5102905;28;20267;-32
2022/10/29 11:43:12;;;;;;;5.53;3.40;;;22.70;99.90;;;;;;5106513;28;20292;-32
2022/10/29 11:45:57;;;;;;;7.70;3.28;;;22.80;99.90;;;;;;5100217;28;20210;-32
2022/10/29 11:49:05;;;;;;;8.98;3.03;;;22.90;99.90;;;;;;5091788;28;20232;-32
2022/10/29 11:51:55;;;;;;;11.13;3.38;;;23.00;99.90;;;;;;5098030;28;20609;-32
2022/10/29 11:54:47;;;;;;;8.45;3.03;;;23.00;99.90;;;;;;5107780;28;20639;-32
2022/10/29 11:57:26;;;;;;;9.95;3.28;;;23.00;99.90;;;;;;5088436;28;20199;-32
2022/10/29 12:00:17;;;;;;;8.48;3.05;;;23.10;99.90;;;;;;5088372;28;20234;-32
2022/10/29 12:03:32;;;;;;;8.15;3.28;;;23.10;99.90;;;;;;5095756;28;20266;-32
2022/10/29 12:06:17;;;;;;;7.65;3.40;;;23.10;99.90;;;;;;5062434;28;20200;-32
2022/10/29 12:08:53;;;;;;;6.95;3.25;;;23.20;99.90;;;;;;5090050;28;20213;-32
2022/10/29 12:11:29;;;;;;;7.90;3.10;;;23.30;99.90;;;;;;5085625;28;20787;-32
2022/10/29 12:14:28;;;;;;;8.63;3.58;;;23.30;99.90;;;;;;5090175;28;20201;-32
2022/10/29 12:17:19;;;;;;;7.55;3.17;;;23.40;99.90;;;;;;5088566;28;20199;-32
2022/10/29 12:20:03;;;;;;;7.70;3.50;;;23.40;99.90;;;;;;5103161;28;20268;-32
2022/10/29 12:22:41;;;;;;;10.52;3.90;;;23.40;99.90;;;;;;5110171;28;20181;-32
2022/10/29 12:25:08;;;;;;;7.82;3.00;;;23.50;99.90;;;;;;5093868;28;20214;-32
2022/10/29 12:27:41;;;;;;;5.82;3.28;;;23.50;99.90;;;;;;5091096;28;20199;-32
2022/10/29 12:30:13;;;;;;;6.43;3.65;;;23.50;99.90;;;;;;5088906;28;20209;-33
2022/10/29 12:33:15;;;;;;;10.23;3.88;;;23.60;99.90;;;;;;5091288;28;20221;-32
2022/10/29 12:35:55;;;;;;;9.73;3.30;;;23.60;99.90;;;;;;5103369;28;20203;-32
2022/10/29 12:38:31;;;;;;;6.88;3.30;;;23.60;99.90;;;;;;5111110;28;20205;-32
2022/10/29 12:41:08;;;;;;;9.52;3.08;;;23.60;99.90;;;;;;5091088;28;20257;-32
2022/10/29 12:43:38;;;;;;;6.70;3.35;;;23.70;99.90;;;;;;5093139;28;20248;-32
2022/10/29 12:46:12;;;;;;;6.68;3.22;;;23.70;99.90;;;;;;5089648;28;20610;-32
2022/10/29 12:49:08;;;;;;;8.55;3.17;;;23.70;99.90;;;;;;5096134;28;20199;-32
2022/10/29 12:51:52;;;;;;;7.97;3.28;;;23.70;99.90;;;;;;5104557;28;20207;-32
2022/10/29 12:54:31;;;;;;;9.38;3.47;;;23.80;99.90;;;;;;5112577;27;20221;-32
2022/10/29 12:57:13;;;;;;;9.20;3.67;;;23.80;99.90;;;;;;5088577;28;20211;-32
2022/10/29 12:59:42;;;;;;;12.15;3.58;;;23.90;99.90;;;;;;5096306;28;20210;-32
2022/10/29 13:02:43;;;;;;;6.78;3.17;;;23.90;99.90;;;;;;5094197;28;20219;-32
2022/10/29 13:05:10;;;;;;;8.23;4.03;;;24.00;99.90;;;;;;5098177;28;20258;-33
2022/10/29 13:07:46;;;;;;;12.93;3.60;;;24.00;99.90;;;;;;5109375;28;20407;-33
2022/10/29 13:10:23;;;;;;;7.13;4.05;;;24.10;99.90;;;;;;5097521;28;20697;-32
2022/10/29 13:13:14;;;;;;;5.05;3.00;;;24.20;99.90;;;;;;5109101;28;20224;-32